YMA7489 RJOB-RKPC
Flight info
| Callsign | YMA7489 |
|---|---|
| Flight time | 1h 10m |
| Altitude | 32000 |
| Route | RJOB WASYU V28 MARCO Y284 KATTA V28 DGC A595 TAMNA RKPC |
| Aircraft | B738/M-VGDW/C |
Departure
| Time | 2026-04-30 09:11 |
|---|---|
| Airport | Okayama Momotaro Airport (RJOB) |
Arrival
| Time | 2026-04-30 10:22 |
|---|---|
| Airport | Jeju International Airport (RKPC) |
| Time | Latitude | Longitude | Altitude | Speed | Heading |
|---|---|---|---|---|---|
| 2026-04-30 08:27 | 34.76040 | 133.85495 | 813 ft | 0 kts | 330° |
| 2026-04-30 09:04 | 34.76030 | 133.85502 | 813 ft | 2 kts | 330° |
| 2026-04-30 09:04 | 34.76016 | 133.85513 | 813 ft | 2 kts | 323° |
| 2026-04-30 09:05 | 34.76003 | 133.85525 | 813 ft | 2 kts | 323° |
| 2026-04-30 09:05 | 34.75991 | 133.85537 | 813 ft | 2 kts | 308° |
| 2026-04-30 09:05 | 34.75983 | 133.85554 | 813 ft | 2 kts | 273° |
| 2026-04-30 09:05 | 34.75983 | 133.85562 | 813 ft | 0 kts | 243° |
| 2026-04-30 09:06 | 34.75982 | 133.85561 | 813 ft | 2 kts | 243° |
| 2026-04-30 09:06 | 34.75854 | 133.85455 | 813 ft | 30 kts | 219° |
| 2026-04-30 09:06 | 34.75731 | 133.85234 | 813 ft | 33 kts | 239° |
| 2026-04-30 09:06 | 34.75615 | 133.84994 | 814 ft | 32 kts | 239° |
| 2026-04-30 09:07 | 34.75508 | 133.84773 | 808 ft | 28 kts | 239° |
| 2026-04-30 09:07 | 34.75425 | 133.84608 | 808 ft | 20 kts | 238° |
| 2026-04-30 09:07 | 34.75357 | 133.84471 | 814 ft | 19 kts | 238° |
| 2026-04-30 09:07 | 34.75290 | 133.84339 | 814 ft | 18 kts | 238° |
| 2026-04-30 09:08 | 34.75227 | 133.84212 | 814 ft | 17 kts | 239° |
| 2026-04-30 09:08 | 34.75171 | 133.84104 | 811 ft | 11 kts | 228° |
| 2026-04-30 09:08 | 34.75105 | 133.84081 | 814 ft | 7 kts | 154° |
| 2026-04-30 09:08 | 34.75104 | 133.84082 | 814 ft | 0 kts | 153° |
| 2026-04-30 09:09 | 34.75038 | 133.84134 | 813 ft | 10 kts | 137° |
| 2026-04-30 09:09 | 34.75029 | 133.84201 | 808 ft | 0 kts | 59° |
| 2026-04-30 09:11 | 34.75185 | 133.84506 | 810 ft | 94 kts | 58° |
| 2026-04-30 09:11 | 34.75677 | 133.85499 | 845 ft | 178 kts | 59° |
| 2026-04-30 09:11 | 34.76368 | 133.86895 | 1472 ft | 207 kts | 60° |
| 2026-04-30 09:12 | 34.76951 | 133.88539 | 1800 ft | 208 kts | 83° |
| 2026-04-30 09:12 | 34.76878 | 133.90186 | 2036 ft | 186 kts | 109° |
| 2026-04-30 09:12 | 34.76084 | 133.91447 | 2308 ft | 198 kts | 145° |
| 2026-04-30 09:12 | 34.74781 | 133.91882 | 2581 ft | 204 kts | 178° |
| 2026-04-30 09:13 | 34.73420 | 133.91499 | 3078 ft | 204 kts | 199° |
| 2026-04-30 09:13 | 34.72319 | 133.90226 | 3564 ft | 230 kts | 224° |
| 2026-04-30 09:13 | 34.71303 | 133.88697 | 4343 ft | 237 kts | 223° |
| 2026-04-30 09:13 | 34.70235 | 133.87112 | 5055 ft | 247 kts | 225° |
| 2026-04-30 09:14 | 34.69143 | 133.85446 | 5679 ft | 256 kts | 226° |
| 2026-04-30 09:14 | 34.68026 | 133.83702 | 6313 ft | 263 kts | 228° |
| 2026-04-30 09:14 | 34.66925 | 133.81952 | 6884 ft | 265 kts | 229° |
| 2026-04-30 09:14 | 34.65806 | 133.80152 | 7459 ft | 268 kts | 229° |
| 2026-04-30 09:15 | 34.64685 | 133.78325 | 8057 ft | 270 kts | 230° |
| 2026-04-30 09:15 | 34.63567 | 133.76475 | 8659 ft | 272 kts | 231° |
| 2026-04-30 09:15 | 34.62443 | 133.74611 | 9273 ft | 274 kts | 231° |
| 2026-04-30 09:15 | 34.61310 | 133.72748 | 9908 ft | 275 kts | 231° |
| 2026-04-30 09:16 | 34.60176 | 133.70864 | 10467 ft | 279 kts | 232° |
| 2026-04-30 09:16 | 34.59016 | 133.68903 | 11046 ft | 294 kts | 233° |
| 2026-04-30 09:16 | 34.57815 | 133.66870 | 11591 ft | 305 kts | 234° |
| 2026-04-30 09:16 | 34.56564 | 133.64756 | 12146 ft | 311 kts | 234° |
| 2026-04-30 09:17 | 34.55316 | 133.62569 | 12705 ft | 320 kts | 236° |
| 2026-04-30 09:17 | 34.54152 | 133.60226 | 13266 ft | 329 kts | 244° |
| 2026-04-30 09:17 | 34.53285 | 133.57622 | 13826 ft | 336 kts | 248° |
| 2026-04-30 09:17 | 34.52438 | 133.54965 | 14343 ft | 336 kts | 248° |
| 2026-04-30 09:18 | 34.51596 | 133.52363 | 14841 ft | 337 kts | 248° |
| 2026-04-30 09:18 | 34.50736 | 133.49711 | 15346 ft | 338 kts | 248° |
| 2026-04-30 09:18 | 34.49875 | 133.47059 | 15851 ft | 338 kts | 248° |
| 2026-04-30 09:18 | 34.49013 | 133.44402 | 16347 ft | 340 kts | 248° |
| 2026-04-30 09:19 | 34.48147 | 133.41734 | 16812 ft | 341 kts | 248° |
| 2026-04-30 09:19 | 34.47297 | 133.39038 | 17231 ft | 341 kts | 249° |
| 2026-04-30 09:19 | 34.46711 | 133.36248 | 17616 ft | 344 kts | 260° |
| 2026-04-30 09:19 | 34.46494 | 133.33390 | 18011 ft | 345 kts | 263° |
| 2026-04-30 09:20 | 34.46314 | 133.30483 | 18382 ft | 347 kts | 263° |
| 2026-04-30 09:20 | 34.46109 | 133.27572 | 18739 ft | 347 kts | 262° |
| 2026-04-30 09:20 | 34.45886 | 133.24658 | 19108 ft | 349 kts | 262° |
| 2026-04-30 09:20 | 34.45668 | 133.21715 | 19471 ft | 351 kts | 262° |
| 2026-04-30 09:21 | 34.45439 | 133.18757 | 19851 ft | 353 kts | 261° |
| 2026-04-30 09:21 | 34.45189 | 133.15792 | 20216 ft | 354 kts | 261° |
| 2026-04-30 09:21 | 34.44943 | 133.12804 | 20577 ft | 356 kts | 261° |
| 2026-04-30 09:21 | 34.44703 | 133.09805 | 20941 ft | 358 kts | 261° |
| 2026-04-30 09:22 | 34.44474 | 133.06823 | 21295 ft | 360 kts | 261° |
| 2026-04-30 09:22 | 34.44232 | 133.03791 | 21643 ft | 361 kts | 260° |
| 2026-04-30 09:22 | 34.43961 | 133.00756 | 21999 ft | 363 kts | 259° |
| 2026-04-30 09:22 | 34.43694 | 132.97705 | 22351 ft | 364 kts | 259° |
| 2026-04-30 09:23 | 34.43450 | 132.94645 | 22704 ft | 365 kts | 260° |
| 2026-04-30 09:23 | 34.42814 | 132.91698 | 23017 ft | 361 kts | 244° |
| 2026-04-30 09:23 | 34.41681 | 132.89018 | 23396 ft | 361 kts | 239° |
| 2026-04-30 09:23 | 34.40469 | 132.86334 | 23707 ft | 363 kts | 240° |
| 2026-04-30 09:24 | 34.39261 | 132.83645 | 24013 ft | 364 kts | 240° |
| 2026-04-30 09:24 | 34.38055 | 132.80947 | 24336 ft | 364 kts | 240° |
| 2026-04-30 09:24 | 34.36848 | 132.78248 | 24657 ft | 365 kts | 239° |
| 2026-04-30 09:24 | 34.35602 | 132.75557 | 24978 ft | 367 kts | 239° |
| 2026-04-30 09:25 | 34.34337 | 132.72858 | 25290 ft | 367 kts | 239° |
| 2026-04-30 09:25 | 34.33077 | 132.70164 | 25600 ft | 368 kts | 239° |
| 2026-04-30 09:25 | 34.31819 | 132.67462 | 25896 ft | 369 kts | 239° |
| 2026-04-30 09:25 | 34.30558 | 132.64747 | 26225 ft | 371 kts | 239° |
| 2026-04-30 09:26 | 34.29291 | 132.62017 | 26529 ft | 372 kts | 239° |
| 2026-04-30 09:26 | 34.28053 | 132.59269 | 26823 ft | 374 kts | 240° |
| 2026-04-30 09:26 | 34.26827 | 132.56492 | 27131 ft | 375 kts | 240° |
| 2026-04-30 09:26 | 34.25603 | 132.53741 | 27425 ft | 378 kts | 239° |
| 2026-04-30 09:27 | 34.24322 | 132.50960 | 27720 ft | 379 kts | 239° |
| 2026-04-30 09:27 | 34.23028 | 132.48184 | 28017 ft | 377 kts | 238° |
| 2026-04-30 09:27 | 34.21745 | 132.45419 | 28304 ft | 378 kts | 239° |
| 2026-04-30 09:27 | 34.20456 | 132.42632 | 28585 ft | 381 kts | 239° |
| 2026-04-30 09:28 | 34.19156 | 132.39830 | 28885 ft | 384 kts | 239° |
| 2026-04-30 09:28 | 34.17849 | 132.37021 | 29178 ft | 385 kts | 239° |
| 2026-04-30 09:28 | 34.16541 | 132.34188 | 29474 ft | 386 kts | 239° |
| 2026-04-30 09:28 | 34.15267 | 132.31332 | 29755 ft | 388 kts | 240° |
| 2026-04-30 09:29 | 34.14032 | 132.28423 | 30025 ft | 390 kts | 242° |
| 2026-04-30 09:29 | 34.12843 | 132.25482 | 30266 ft | 390 kts | 240° |
| 2026-04-30 09:29 | 34.11532 | 132.22651 | 30539 ft | 389 kts | 238° |
| 2026-04-30 09:29 | 34.10156 | 132.19837 | 30806 ft | 388 kts | 238° |
| 2026-04-30 09:30 | 34.08814 | 132.17009 | 31072 ft | 388 kts | 239° |
| 2026-04-30 09:30 | 34.07601 | 132.14100 | 31330 ft | 390 kts | 246° |
| 2026-04-30 09:30 | 34.06852 | 132.10936 | 31606 ft | 395 kts | 253° |
| 2026-04-30 09:30 | 34.06338 | 132.07680 | 31866 ft | 395 kts | 255° |
| 2026-04-30 09:31 | 34.05359 | 132.01103 | 31930 ft | 399 kts | 255° |
| 2026-04-30 09:31 | 34.04383 | 131.94584 | 31926 ft | 396 kts | 255° |
| 2026-04-30 09:32 | 34.03327 | 131.88072 | 31920 ft | 395 kts | 254° |
| 2026-04-30 09:32 | 34.02271 | 131.81558 | 31917 ft | 396 kts | 255° |
| 2026-04-30 09:33 | 34.01374 | 131.74989 | 31915 ft | 396 kts | 253° |
| 2026-04-30 09:33 | 34.00238 | 131.68497 | 31911 ft | 396 kts | 254° |
| 2026-04-30 09:34 | 33.99122 | 131.62049 | 31911 ft | 396 kts | 253° |
| 2026-04-30 09:34 | 33.97935 | 131.55553 | 31898 ft | 395 kts | 253° |
| 2026-04-30 09:35 | 33.96808 | 131.49081 | 31890 ft | 395 kts | 254° |
| 2026-04-30 09:35 | 33.95751 | 131.42607 | 31888 ft | 396 kts | 254° |
| 2026-04-30 09:36 | 33.94688 | 131.36098 | 31886 ft | 395 kts | 254° |
| 2026-04-30 09:36 | 33.93641 | 131.29587 | 31886 ft | 395 kts | 254° |
| 2026-04-30 09:37 | 33.92010 | 131.23388 | 31887 ft | 389 kts | 245° |
| 2026-04-30 09:37 | 33.89978 | 131.17358 | 31886 ft | 389 kts | 245° |
| 2026-04-30 09:38 | 33.87999 | 131.11296 | 31884 ft | 389 kts | 246° |
| 2026-04-30 09:38 | 33.86130 | 131.05189 | 31885 ft | 388 kts | 248° |
| 2026-04-30 09:39 | 33.84452 | 130.98993 | 31885 ft | 389 kts | 247° |
| 2026-04-30 09:39 | 33.82944 | 130.93898 | 31886 ft | 388 kts | 247° |
| 2026-04-30 09:40 | 33.81139 | 130.87796 | 31887 ft | 387 kts | 247° |
| 2026-04-30 09:40 | 33.79428 | 130.81645 | 31891 ft | 387 kts | 249° |
| 2026-04-30 09:41 | 33.77903 | 130.75463 | 31885 ft | 387 kts | 247° |
| 2026-04-30 09:41 | 33.76115 | 130.69364 | 31891 ft | 385 kts | 247° |
| 2026-04-30 09:42 | 33.74336 | 130.63291 | 31892 ft | 385 kts | 247° |
| 2026-04-30 09:42 | 33.72564 | 130.57249 | 31883 ft | 386 kts | 247° |
| 2026-04-30 09:43 | 33.70775 | 130.51175 | 31885 ft | 386 kts | 247° |
| 2026-04-30 09:43 | 33.69012 | 130.45078 | 31887 ft | 386 kts | 248° |
| 2026-04-30 09:44 | 33.67489 | 130.38884 | 31878 ft | 388 kts | 253° |
| 2026-04-30 09:44 | 33.67391 | 130.35599 | 31862 ft | 402 kts | 268° |
| 2026-04-30 09:44 | 33.67832 | 130.32267 | 31902 ft | 406 kts | 271° |
| 2026-04-30 09:45 | 33.68856 | 130.25640 | 31895 ft | 407 kts | 271° |
| 2026-04-30 09:45 | 33.69762 | 130.18941 | 31891 ft | 405 kts | 270° |
| 2026-04-30 09:46 | 33.70614 | 130.12234 | 31895 ft | 406 kts | 270° |
| 2026-04-30 09:46 | 33.71388 | 130.05535 | 31892 ft | 404 kts | 269° |
| 2026-04-30 09:47 | 33.72130 | 129.98844 | 31891 ft | 404 kts | 269° |
| 2026-04-30 09:47 | 33.72883 | 129.92142 | 31885 ft | 404 kts | 269° |
| 2026-04-30 09:48 | 33.73631 | 129.85495 | 31885 ft | 404 kts | 269° |
| 2026-04-30 09:48 | 33.74466 | 129.78809 | 31882 ft | 403 kts | 268° |
| 2026-04-30 09:49 | 33.74471 | 129.75505 | 31875 ft | 392 kts | 258° |
| 2026-04-30 09:49 | 33.74143 | 129.72265 | 31892 ft | 390 kts | 256° |
| 2026-04-30 09:49 | 33.73345 | 129.65819 | 31889 ft | 389 kts | 255° |
| 2026-04-30 09:50 | 33.72573 | 129.59389 | 31893 ft | 388 kts | 256° |
| 2026-04-30 09:50 | 33.71852 | 129.53040 | 31891 ft | 366 kts | 256° |
| 2026-04-30 09:51 | 33.71539 | 129.50108 | 31896 ft | 342 kts | 256° |
| 2026-04-30 09:51 | 33.71268 | 129.47393 | 31897 ft | 322 kts | 256° |
| 2026-04-30 09:51 | 33.70990 | 129.44792 | 31898 ft | 307 kts | 255° |
| 2026-04-30 09:51 | 33.70714 | 129.42265 | 31909 ft | 306 kts | 255° |
| 2026-04-30 09:52 | 33.70126 | 129.37076 | 31918 ft | 320 kts | 255° |
| 2026-04-30 09:52 | 33.69546 | 129.31753 | 31919 ft | 321 kts | 256° |
| 2026-04-30 09:53 | 33.69143 | 129.26423 | 31919 ft | 319 kts | 255° |
| 2026-04-30 09:53 | 33.68471 | 129.21207 | 31923 ft | 318 kts | 254° |
| 2026-04-30 09:54 | 33.67780 | 129.15957 | 31921 ft | 318 kts | 255° |
| 2026-04-30 09:54 | 33.67168 | 129.10700 | 31928 ft | 318 kts | 255° |
| 2026-04-30 09:55 | 33.66553 | 129.05435 | 31927 ft | 317 kts | 255° |
| 2026-04-30 09:55 | 33.65946 | 129.00211 | 31933 ft | 318 kts | 255° |
| 2026-04-30 09:56 | 33.65325 | 128.94949 | 31931 ft | 318 kts | 255° |
| 2026-04-30 09:56 | 33.64707 | 128.89698 | 31934 ft | 318 kts | 255° |
| 2026-04-30 09:57 | 33.64086 | 128.84445 | 31936 ft | 318 kts | 255° |
| 2026-04-30 09:57 | 33.63544 | 128.79198 | 31936 ft | 318 kts | 256° |
| 2026-04-30 09:58 | 33.63003 | 128.73933 | 31938 ft | 317 kts | 255° |
| 2026-04-30 09:58 | 33.62378 | 128.68687 | 31939 ft | 317 kts | 255° |
| 2026-04-30 09:59 | 33.61112 | 128.58201 | 31953 ft | 319 kts | 255° |
| 2026-04-30 10:00 | 33.60469 | 128.52813 | 31952 ft | 338 kts | 256° |
| 2026-04-30 10:00 | 33.60157 | 128.49967 | 31951 ft | 348 kts | 256° |
| 2026-04-30 10:01 | 33.59485 | 128.44036 | 31959 ft | 369 kts | 256° |
| 2026-04-30 10:01 | 33.59119 | 128.40954 | 31954 ft | 378 kts | 256° |
| 2026-04-30 10:02 | 33.58265 | 128.31310 | 31964 ft | 391 kts | 259° |
| 2026-04-30 10:02 | 33.57583 | 128.24906 | 31977 ft | 383 kts | 256° |
| 2026-04-30 10:03 | 33.56830 | 128.18738 | 31963 ft | 369 kts | 256° |
| 2026-04-30 10:03 | 33.56119 | 128.12752 | 31967 ft | 357 kts | 256° |
| 2026-04-30 10:04 | 33.55441 | 128.06919 | 31960 ft | 349 kts | 256° |
| 2026-04-30 10:04 | 33.54779 | 128.01205 | 31966 ft | 342 kts | 256° |
| 2026-04-30 10:04 | 33.54441 | 127.98344 | 31207 ft | 354 kts | 256° |
| 2026-04-30 10:05 | 33.54081 | 127.95385 | 30656 ft | 364 kts | 256° |
| 2026-04-30 10:05 | 33.53711 | 127.92347 | 30147 ft | 372 kts | 257° |
| 2026-04-30 10:05 | 33.53367 | 127.89279 | 29591 ft | 379 kts | 257° |
| 2026-04-30 10:05 | 33.53023 | 127.86150 | 28562 ft | 383 kts | 257° |
| 2026-04-30 10:06 | 33.52660 | 127.82986 | 27709 ft | 379 kts | 257° |
| 2026-04-30 10:06 | 33.52301 | 127.79898 | 27131 ft | 371 kts | 257° |
| 2026-04-30 10:06 | 33.51940 | 127.76840 | 26581 ft | 369 kts | 257° |
| 2026-04-30 10:06 | 33.51583 | 127.73790 | 25322 ft | 374 kts | 257° |
| 2026-04-30 10:07 | 33.51243 | 127.70755 | 24644 ft | 362 kts | 258° |
| 2026-04-30 10:07 | 33.50929 | 127.67770 | 24118 ft | 361 kts | 258° |
| 2026-04-30 10:07 | 33.50610 | 127.64773 | 23608 ft | 362 kts | 258° |
| 2026-04-30 10:07 | 33.50296 | 127.61793 | 22383 ft | 361 kts | 258° |
| 2026-04-30 10:08 | 33.49975 | 127.58837 | 21766 ft | 356 kts | 258° |
| 2026-04-30 10:08 | 33.49658 | 127.55893 | 20941 ft | 357 kts | 258° |
| 2026-04-30 10:08 | 33.49334 | 127.52927 | 19968 ft | 357 kts | 258° |
| 2026-04-30 10:08 | 33.49010 | 127.50000 | 19389 ft | 353 kts | 258° |
| 2026-04-30 10:09 | 33.48688 | 127.47081 | 18681 ft | 356 kts | 258° |
| 2026-04-30 10:09 | 33.48361 | 127.44175 | 17734 ft | 353 kts | 258° |
| 2026-04-30 10:09 | 33.48029 | 127.41285 | 16844 ft | 349 kts | 258° |
| 2026-04-30 10:09 | 33.47685 | 127.38403 | 15970 ft | 347 kts | 258° |
| 2026-04-30 10:10 | 33.47332 | 127.35564 | 15461 ft | 342 kts | 258° |
| 2026-04-30 10:10 | 33.47098 | 127.32726 | 14511 ft | 348 kts | 269° |
| 2026-04-30 10:10 | 33.47557 | 127.29885 | 13735 ft | 346 kts | 282° |
| 2026-04-30 10:10 | 33.48192 | 127.27120 | 13000 ft | 343 kts | 281° |
| 2026-04-30 10:11 | 33.48801 | 127.24366 | 12267 ft | 344 kts | 281° |
| 2026-04-30 10:11 | 33.49390 | 127.21646 | 11554 ft | 332 kts | 282° |
| 2026-04-30 10:11 | 33.49971 | 127.18926 | 10912 ft | 331 kts | 281° |
| 2026-04-30 10:11 | 33.50504 | 127.16403 | 10705 ft | 296 kts | 281° |
| 2026-04-30 10:12 | 33.51000 | 127.14090 | 10408 ft | 280 kts | 281° |
| 2026-04-30 10:12 | 33.51475 | 127.11856 | 10144 ft | 276 kts | 281° |
| 2026-04-30 10:12 | 33.51950 | 127.09591 | 9815 ft | 282 kts | 281° |
| 2026-04-30 10:12 | 33.52425 | 127.07320 | 9515 ft | 278 kts | 281° |
| 2026-04-30 10:13 | 33.52886 | 127.05098 | 9205 ft | 278 kts | 281° |
| 2026-04-30 10:13 | 33.53341 | 127.02855 | 8917 ft | 274 kts | 281° |
| 2026-04-30 10:13 | 33.53783 | 127.00652 | 8593 ft | 269 kts | 281° |
| 2026-04-30 10:13 | 33.54214 | 126.98485 | 8295 ft | 264 kts | 282° |
| 2026-04-30 10:14 | 33.54658 | 126.96369 | 7988 ft | 259 kts | 282° |
| 2026-04-30 10:14 | 33.55094 | 126.94288 | 7689 ft | 256 kts | 282° |
| 2026-04-30 10:14 | 33.55920 | 126.90205 | 7111 ft | 248 kts | 282° |
| 2026-04-30 10:15 | 33.56317 | 126.88225 | 6821 ft | 244 kts | 283° |
| 2026-04-30 10:15 | 33.56676 | 126.86498 | 6594 ft | 230 kts | 283° |
| 2026-04-30 10:15 | 33.57040 | 126.84708 | 6383 ft | 215 kts | 283° |
| 2026-04-30 10:15 | 33.57387 | 126.82969 | 6149 ft | 217 kts | 284° |
| 2026-04-30 10:16 | 33.57757 | 126.81180 | 5908 ft | 220 kts | 284° |
| 2026-04-30 10:16 | 33.58105 | 126.79450 | 5673 ft | 212 kts | 285° |
| 2026-04-30 10:16 | 33.58455 | 126.77766 | 5431 ft | 209 kts | 285° |
| 2026-04-30 10:17 | 33.59153 | 126.74359 | 4942 ft | 210 kts | 286° |
| 2026-04-30 10:17 | 33.59871 | 126.70953 | 4450 ft | 206 kts | 287° |
| 2026-04-30 10:17 | 33.60235 | 126.69278 | 4206 ft | 209 kts | 287° |
| 2026-04-30 10:18 | 33.60229 | 126.67593 | 3865 ft | 211 kts | 253° |
| 2026-04-30 10:18 | 33.59523 | 126.66052 | 3703 ft | 212 kts | 241° |
| 2026-04-30 10:18 | 33.58801 | 126.64548 | 3449 ft | 203 kts | 243° |
| 2026-04-30 10:19 | 33.57484 | 126.61738 | 2917 ft | 187 kts | 244° |
| 2026-04-30 10:19 | 33.56875 | 126.60405 | 2657 ft | 177 kts | 244° |
| 2026-04-30 10:19 | 33.56270 | 126.59145 | 2393 ft | 171 kts | 242° |
| 2026-04-30 10:19 | 33.55662 | 126.57936 | 2126 ft | 166 kts | 242° |
| 2026-04-30 10:20 | 33.55083 | 126.56787 | 1868 ft | 156 kts | 242° |
| 2026-04-30 10:20 | 33.54120 | 126.54885 | 1415 ft | 146 kts | 242° |
| 2026-04-30 10:20 | 33.53602 | 126.53870 | 1162 ft | 138 kts | 242° |
| 2026-04-30 10:21 | 33.53109 | 126.52913 | 931 ft | 135 kts | 241° |
| 2026-04-30 10:21 | 33.52627 | 126.51979 | 673 ft | 127 kts | 241° |
| 2026-04-30 10:21 | 33.52178 | 126.51091 | 427 ft | 122 kts | 240° |
| 2026-04-30 10:21 | 33.51730 | 126.50219 | 216 ft | 125 kts | 240° |
| 2026-04-30 10:22 | 33.51288 | 126.49370 | 134 ft | 108 kts | 236° |
| 2026-04-30 10:22 | 33.50950 | 126.48732 | 136 ft | 73 kts | 239° |
| 2026-04-30 10:22 | 33.50749 | 126.48333 | 134 ft | 39 kts | 232° |
| 2026-04-30 10:22 | 33.50635 | 126.48207 | 134 ft | 12 kts | 210° |
| 2026-04-30 10:23 | 33.50517 | 126.48195 | 134 ft | 14 kts | 133° |
| 2026-04-30 10:23 | 33.50522 | 126.48261 | 134 ft | 12 kts | 55° |
| 2026-04-30 10:23 | 33.50610 | 126.48434 | 134 ft | 33 kts | 59° |
| 2026-04-30 10:23 | 33.50728 | 126.48666 | 134 ft | 24 kts | 57° |
| 2026-04-30 10:24 | 33.50789 | 126.48845 | 134 ft | 19 kts | 107° |
| 2026-04-30 10:24 | 33.50688 | 126.48951 | 134 ft | 15 kts | 145° |
| 2026-04-30 10:24 | 33.50642 | 126.48982 | 134 ft | 2 kts | 151° |
| 2026-04-30 10:24 | 33.50629 | 126.48992 | 134 ft | 0 kts | 149° |